createdAt,value
2017-08-29T00:00:41.465Z,2.97
2017-08-29T00:03:09.238Z,2.63
2017-08-29T00:05:37.057Z,2.87
2017-08-29T00:08:04.828Z,2.97
2017-08-29T00:10:32.648Z,3.00
2017-08-29T00:13:00.462Z,3.20
2017-08-29T00:15:28.247Z,3.03
2017-08-29T00:17:56.084Z,3.57
2017-08-29T00:20:24.279Z,2.90
2017-08-29T00:22:52.122Z,3.23
2017-08-29T00:25:19.922Z,3.00
2017-08-29T00:27:47.779Z,3.10
2017-08-29T00:30:15.613Z,2.53
2017-08-29T00:32:43.455Z,2.10
2017-08-29T00:35:11.191Z,2.60
2017-08-29T00:37:39.021Z,2.63
2017-08-29T00:40:06.789Z,2.70
2017-08-29T00:42:34.595Z,2.40
2017-08-29T00:45:02.403Z,2.63
2017-08-29T00:47:30.232Z,2.80
2017-08-29T00:49:58.030Z,2.47
2017-08-29T00:52:25.860Z,2.57
2017-08-29T00:54:53.670Z,2.50
2017-08-29T00:57:21.446Z,2.80
2017-08-29T00:59:49.290Z,2.70
2017-08-29T01:02:17.096Z,2.43
2017-08-29T01:04:44.969Z,3.00
2017-08-29T01:07:12.744Z,2.87
2017-08-29T01:09:40.584Z,2.37
2017-08-29T01:12:08.426Z,2.67
2017-08-29T01:14:36.272Z,2.80
2017-08-29T01:17:04.100Z,3.00
2017-08-29T01:19:32.014Z,2.43
2017-08-29T01:21:59.852Z,2.53
2017-08-29T01:24:27.698Z,2.50
2017-08-29T01:26:55.527Z,3.00
2017-08-29T01:29:23.409Z,2.30
2017-08-29T01:31:51.167Z,3.43
2017-08-29T01:34:19.017Z,2.73
2017-08-29T01:36:46.877Z,2.67
2017-08-29T01:39:14.672Z,2.70
2017-08-29T01:41:42.550Z,2.47
2017-08-29T01:44:10.388Z,2.87
2017-08-29T01:46:38.258Z,2.63
2017-08-29T01:49:06.095Z,2.37
2017-08-29T01:51:33.967Z,2.40
2017-08-29T01:54:01.792Z,2.53
2017-08-29T01:56:29.685Z,2.30
2017-08-29T01:58:57.880Z,2.20
2017-08-29T02:01:25.876Z,2.30
2017-08-29T02:03:53.721Z,2.50
2017-08-29T02:06:21.630Z,2.50
2017-08-29T02:08:49.461Z,2.67
2017-08-29T02:11:17.248Z,2.77
2017-08-29T02:13:45.096Z,2.53
2017-08-29T02:16:12.906Z,2.90
2017-08-29T02:18:40.752Z,3.00
2017-08-29T02:24:23.820Z,3.10
2017-08-29T02:26:51.576Z,2.60
2017-08-29T02:29:19.404Z,2.30
2017-08-29T02:31:47.196Z,2.60
2017-08-29T02:34:15.025Z,2.70
2017-08-29T02:36:42.812Z,2.60
2017-08-29T02:39:10.555Z,2.43
2017-08-29T02:41:38.338Z,2.90
2017-08-29T02:44:06.193Z,2.60
2017-08-29T02:46:33.978Z,2.90
2017-08-29T02:49:01.808Z,2.70
2017-08-29T02:54:02.046Z,3.10
2017-08-29T02:56:29.848Z,2.70
2017-08-29T02:58:57.625Z,2.40
2017-08-29T03:01:25.434Z,2.90
2017-08-29T03:03:53.220Z,2.50
2017-08-29T03:06:21.041Z,3.00
2017-08-29T03:08:48.737Z,2.63
2017-08-29T03:11:16.558Z,2.70
2017-08-29T03:13:44.368Z,3.10
2017-08-29T03:16:12.194Z,3.23
2017-08-29T03:18:39.915Z,3.27
2017-08-29T03:21:07.807Z,3.17
2017-08-29T03:23:35.600Z,3.00
2017-08-29T03:26:03.411Z,2.63
2017-08-29T03:28:31.198Z,3.30
2017-08-29T03:30:59.022Z,2.57
2017-08-29T03:33:26.825Z,2.60
2017-08-29T03:35:54.648Z,2.57
2017-08-29T03:38:22.418Z,2.27
2017-08-29T03:40:50.188Z,2.20
2017-08-29T03:43:17.993Z,2.40
2017-08-29T03:45:45.799Z,2.73
2017-08-29T03:48:13.625Z,2.73
2017-08-29T03:50:41.430Z,2.43
2017-08-29T03:53:09.275Z,2.30
2017-08-29T03:55:37.078Z,2.57
2017-08-29T03:58:04.924Z,2.50
2017-08-29T04:00:32.711Z,2.40
2017-08-29T04:03:00.519Z,2.47
2017-08-29T04:05:28.288Z,2.60
2017-08-29T04:07:56.105Z,2.20
2017-08-29T04:10:23.809Z,2.40
2017-08-29T04:12:51.635Z,2.60
2017-08-29T04:15:19.429Z,2.40
2017-08-29T04:17:47.241Z,2.70
2017-08-29T04:20:14.989Z,2.17
2017-08-29T04:22:42.784Z,3.10
2017-08-29T04:25:10.674Z,2.70
2017-08-29T04:27:38.453Z,2.70
2017-08-29T04:30:06.357Z,2.80
2017-08-29T04:32:34.424Z,2.60
2017-08-29T04:35:02.248Z,3.20
2017-08-29T04:37:29.940Z,2.97
2017-08-29T04:39:57.751Z,2.83
2017-08-29T04:42:25.455Z,3.50
2017-08-29T04:44:53.146Z,2.70
2017-08-29T04:47:20.953Z,2.60
2017-08-29T04:49:48.664Z,2.57
2017-08-29T04:52:16.464Z,2.70
2017-08-29T04:54:44.200Z,2.80
2017-08-29T04:57:11.947Z,2.60
2017-08-29T04:59:39.711Z,2.83
2017-08-29T05:02:07.524Z,2.13
2017-08-29T05:04:35.278Z,2.57
2017-08-29T05:07:03.075Z,2.20
2017-08-29T05:09:30.788Z,2.13
2017-08-29T05:11:58.553Z,2.37
2017-08-29T05:14:26.287Z,2.27
2017-08-29T05:16:54.053Z,2.47
2017-08-29T05:19:21.769Z,2.10
2017-08-29T05:21:49.597Z,2.47
2017-08-29T05:24:17.355Z,2.40
2017-08-29T05:26:45.070Z,2.17
2017-08-29T05:29:12.887Z,2.20
2017-08-29T05:31:40.638Z,2.30
2017-08-29T05:34:08.505Z,2.20
2017-08-29T05:36:36.217Z,2.30
2017-08-29T05:39:04.129Z,2.00
2017-08-29T05:41:31.839Z,2.10
2017-08-29T05:43:59.613Z,2.20
2017-08-29T05:46:27.329Z,2.07
2017-08-29T05:48:55.160Z,2.20
2017-08-29T05:51:22.890Z,2.43
2017-08-29T05:53:50.668Z,2.50
2017-08-29T05:56:18.505Z,2.33
2017-08-29T05:58:46.396Z,2.20
2017-08-29T06:01:14.230Z,3.10
2017-08-29T06:03:42.035Z,2.50
2017-08-29T06:06:09.887Z,2.47
2017-08-29T06:08:37.684Z,2.63
2017-08-29T06:11:05.564Z,3.03
2017-08-29T06:13:33.475Z,2.30
2017-08-29T06:16:01.356Z,2.63
2017-08-29T06:18:29.270Z,3.83
2017-08-29T06:20:57.191Z,4.20
2017-08-29T06:23:25.020Z,4.10
2017-08-29T06:25:52.873Z,3.70
2017-08-29T06:28:20.691Z,4.03
2017-08-29T06:30:48.537Z,3.90
2017-08-29T06:33:16.350Z,3.90
2017-08-29T06:35:44.196Z,3.70
2017-08-29T06:38:12.038Z,4.43
2017-08-29T06:40:39.883Z,3.90
2017-08-29T06:43:07.672Z,3.90
2017-08-29T06:45:35.506Z,3.80
2017-08-29T06:48:03.368Z,3.50
2017-08-29T06:50:31.197Z,4.10
2017-08-29T06:52:59.006Z,3.70
2017-08-29T06:55:26.820Z,3.80
2017-08-29T06:57:54.636Z,3.43
2017-08-29T07:00:22.482Z,3.93
2017-08-29T07:02:50.344Z,4.03
2017-08-29T07:05:18.199Z,4.10
2017-08-29T07:07:46.046Z,3.73
2017-08-29T07:10:13.891Z,3.33
2017-08-29T07:12:41.712Z,3.50
2017-08-29T07:15:09.593Z,3.30
2017-08-29T07:17:37.416Z,3.13
2017-08-29T07:20:05.282Z,3.33
2017-08-29T07:22:33.169Z,3.37
2017-08-29T07:25:00.939Z,3.33
2017-08-29T07:27:28.719Z,3.30
2017-08-29T07:29:56.619Z,3.30
2017-08-29T07:32:24.449Z,3.13
2017-08-29T07:34:52.369Z,3.07
2017-08-29T07:37:20.134Z,3.23
2017-08-29T07:39:47.993Z,3.40
2017-08-29T07:42:15.717Z,2.80
2017-08-29T07:44:43.614Z,3.10
2017-08-29T07:47:11.364Z,3.10
2017-08-29T07:49:39.222Z,2.67
2017-08-29T07:52:06.944Z,2.90
2017-08-29T07:54:34.770Z,2.63
2017-08-29T07:57:02.563Z,3.30
2017-08-29T07:59:30.437Z,2.50
2017-08-29T08:01:58.167Z,3.07
2017-08-29T08:04:25.873Z,2.40
2017-08-29T08:06:53.639Z,2.93
2017-08-29T08:09:21.417Z,3.10
2017-08-29T08:11:49.369Z,2.60
2017-08-29T08:14:17.256Z,2.67
2017-08-29T08:16:45.148Z,2.90
2017-08-29T08:19:12.852Z,2.70
2017-08-29T08:21:40.731Z,2.73
2017-08-29T08:24:08.491Z,2.60
2017-08-29T08:26:36.370Z,2.67
2017-08-29T08:29:04.204Z,2.67
2017-08-29T08:31:32.074Z,3.07
2017-08-29T08:33:59.869Z,2.53
2017-08-29T08:36:27.647Z,2.60
2017-08-29T08:38:55.449Z,2.47
2017-08-29T08:41:23.246Z,2.57
2017-08-29T08:43:51.117Z,2.30
2017-08-29T08:46:18.910Z,2.70
2017-08-29T08:48:46.802Z,2.73
2017-08-29T08:51:14.600Z,2.53
2017-08-29T08:53:42.483Z,2.67
2017-08-29T08:56:10.290Z,2.83
2017-08-29T08:58:38.240Z,2.20
2017-08-29T09:01:06.068Z,2.73
2017-08-29T09:03:33.904Z,2.60
2017-08-29T09:06:01.714Z,2.50
2017-08-29T09:08:29.566Z,2.50
2017-08-29T09:10:57.290Z,2.53
2017-08-29T09:13:25.137Z,2.67
2017-08-29T09:15:52.931Z,3.20
2017-08-29T09:18:20.800Z,2.97
2017-08-29T09:20:48.695Z,2.63
2017-08-29T09:23:16.501Z,2.67
2017-08-29T09:25:44.378Z,3.00
2017-08-29T09:28:12.197Z,2.90
2017-08-29T09:30:40.048Z,2.73
2017-08-29T09:33:07.851Z,2.70
2017-08-29T09:35:35.680Z,2.80
2017-08-29T09:38:03.465Z,2.80
2017-08-29T09:40:31.332Z,2.57
2017-08-29T09:42:59.134Z,3.20
2017-08-29T09:45:26.896Z,3.03
2017-08-29T09:47:54.621Z,2.87
2017-08-29T09:50:22.385Z,3.10
2017-08-29T09:52:50.116Z,2.57
2017-08-29T09:55:17.952Z,2.67
2017-08-29T09:57:45.724Z,3.10
2017-08-29T10:00:13.460Z,2.77
2017-08-29T10:02:41.242Z,2.50
2017-08-29T10:05:08.965Z,3.07
2017-08-29T10:07:36.785Z,2.97
2017-08-29T10:10:04.487Z,2.87
2017-08-29T10:12:32.303Z,3.03
2017-08-29T10:15:00.044Z,2.67
2017-08-29T10:17:27.813Z,3.10
2017-08-29T10:19:55.560Z,3.17
2017-08-29T10:22:23.348Z,3.00
2017-08-29T10:24:51.073Z,2.80
2017-08-29T10:27:18.869Z,2.57
2017-08-29T10:29:46.567Z,3.00
2017-08-29T10:32:14.378Z,2.83
2017-08-29T10:34:42.106Z,3.00
2017-08-29T10:37:09.852Z,2.57
2017-08-29T10:39:37.689Z,3.07
2017-08-29T10:42:05.478Z,2.90
2017-08-29T10:44:33.375Z,2.60
2017-08-29T10:47:01.188Z,2.77
2017-08-29T10:49:29.019Z,2.70
2017-08-29T10:51:57.851Z,2.83
2017-08-29T10:54:25.640Z,2.73
2017-08-29T10:56:53.364Z,3.40
2017-08-29T10:59:21.139Z,2.93
2017-08-29T11:01:48.974Z,3.10
2017-08-29T11:04:16.755Z,3.00
2017-08-29T11:06:45.247Z,2.90
2017-08-29T11:09:12.998Z,3.03
2017-08-29T11:11:40.744Z,2.87
2017-08-29T11:14:08.470Z,3.30
2017-08-29T11:16:38.570Z,2.77
2017-08-29T11:19:06.373Z,3.30
2017-08-29T11:21:34.181Z,2.73
2017-08-29T11:24:01.981Z,3.00
2017-08-29T11:26:29.887Z,3.27
2017-08-29T11:28:57.665Z,3.17
2017-08-29T11:31:25.578Z,3.27
2017-08-29T11:33:53.337Z,3.37
2017-08-29T11:36:21.263Z,3.50
2017-08-29T11:38:49.091Z,3.47
2017-08-29T11:41:17.031Z,3.17
2017-08-29T11:43:44.881Z,3.33
2017-08-29T11:46:12.724Z,3.50
2017-08-29T11:48:40.625Z,3.20
2017-08-29T11:51:08.484Z,3.50
2017-08-29T11:53:36.390Z,3.53
2017-08-29T11:56:04.266Z,3.83
2017-08-29T11:58:32.177Z,4.30
2017-08-29T12:01:00.064Z,4.10
2017-08-29T12:03:27.975Z,4.00
2017-08-29T12:05:55.872Z,3.80
2017-08-29T12:08:23.780Z,4.17
2017-08-29T12:10:51.573Z,3.93
2017-08-29T12:13:19.425Z,3.90
2017-08-29T12:15:47.240Z,4.10
2017-08-29T12:18:15.055Z,4.53
2017-08-29T12:20:42.950Z,4.33
2017-08-29T12:23:10.733Z,4.13
2017-08-29T12:25:38.576Z,4.57
2017-08-29T12:28:06.412Z,4.40
2017-08-29T12:30:34.211Z,4.93
2017-08-29T12:33:02.024Z,4.33
2017-08-29T12:35:29.866Z,4.63
2017-08-29T12:37:57.681Z,4.60
2017-08-29T12:40:25.559Z,4.40
2017-08-29T12:42:53.384Z,4.80
2017-08-29T12:45:21.254Z,4.73
2017-08-29T12:47:49.096Z,4.60
2017-08-29T12:50:16.898Z,5.87
2017-08-29T12:52:44.766Z,5.13
2017-08-29T12:55:12.633Z,5.37
2017-08-29T12:57:40.476Z,5.00
2017-08-29T13:00:08.296Z,5.33
2017-08-29T13:02:36.128Z,5.40
2017-08-29T13:05:03.957Z,5.40
2017-08-29T13:07:31.821Z,5.50
2017-08-29T13:09:59.616Z,5.60
2017-08-29T13:12:27.457Z,5.17
2017-08-29T13:14:55.211Z,5.20
2017-08-29T13:17:22.975Z,5.27
2017-08-29T13:19:50.778Z,5.50
2017-08-29T13:22:18.590Z,5.80
2017-08-29T13:24:46.417Z,6.10
2017-08-29T13:27:14.180Z,5.27
2017-08-29T13:29:41.964Z,5.63
2017-08-29T13:32:09.721Z,5.67
2017-08-29T13:34:37.491Z,5.80
2017-08-29T13:37:05.223Z,5.17
2017-08-29T13:39:32.978Z,5.73
2017-08-29T13:42:00.691Z,6.10
2017-08-29T13:44:28.408Z,5.53
2017-08-29T13:46:56.178Z,5.40
2017-08-29T13:49:23.885Z,5.60
2017-08-29T13:51:51.680Z,5.70
2017-08-29T13:54:19.382Z,6.00
2017-08-29T13:56:47.144Z,6.03
2017-08-29T13:59:14.835Z,5.53
2017-08-29T14:01:42.588Z,5.10
2017-08-29T14:04:10.312Z,5.60
2017-08-29T14:06:38.079Z,5.97
2017-08-29T14:09:05.796Z,5.57
2017-08-29T14:11:33.592Z,6.37
2017-08-29T14:14:01.329Z,5.93
2017-08-29T14:16:29.183Z,6.10
2017-08-29T14:18:57.030Z,6.73
2017-08-29T14:21:24.724Z,6.20
2017-08-29T14:23:52.481Z,6.80
2017-08-29T14:26:20.231Z,6.20
2017-08-29T14:28:47.984Z,7.00
2017-08-29T14:31:15.698Z,5.80
2017-08-29T14:33:43.442Z,6.23
2017-08-29T14:36:11.220Z,6.20
2017-08-29T14:38:38.987Z,6.17
2017-08-29T14:41:06.816Z,6.13
2017-08-29T14:43:34.652Z,6.80
2017-08-29T14:46:02.383Z,6.17
2017-08-29T14:48:42.098Z,7.00
2017-08-29T14:51:10.300Z,7.33
2017-08-29T14:53:38.365Z,6.87
2017-08-29T14:56:06.188Z,6.50
2017-08-29T14:58:34.046Z,6.50
2017-08-29T15:01:01.806Z,7.23
2017-08-29T15:03:29.546Z,7.33
2017-08-29T15:05:57.358Z,7.00
2017-08-29T15:08:25.058Z,7.10
2017-08-29T15:10:52.950Z,7.03
2017-08-29T15:13:20.780Z,7.53
2017-08-29T15:15:48.619Z,6.57
2017-08-29T15:18:16.428Z,7.10
2017-08-29T15:20:44.213Z,6.70
2017-08-29T15:23:12.035Z,7.00
2017-08-29T15:25:39.907Z,6.80
2017-08-29T15:28:07.729Z,6.97
2017-08-29T15:30:35.503Z,7.83
2017-08-29T15:33:03.339Z,8.10
2017-08-29T15:35:31.149Z,8.23
2017-08-29T15:37:58.994Z,8.20
2017-08-29T15:40:26.801Z,8.10
2017-08-29T15:42:54.622Z,8.87
2017-08-29T15:45:22.363Z,8.70
2017-08-29T15:47:50.244Z,9.10
2017-08-29T15:50:18.069Z,8.60
2017-08-29T15:52:45.910Z,8.53
2017-08-29T15:55:13.692Z,9.03
2017-08-29T15:57:41.536Z,9.43
2017-08-29T16:00:09.343Z,9.17
2017-08-29T16:02:37.167Z,9.73
2017-08-29T16:05:04.947Z,9.73
2017-08-29T16:07:32.746Z,10.27
2017-08-29T16:10:00.590Z,9.87
2017-08-29T16:12:28.380Z,9.83
2017-08-29T16:14:56.169Z,9.50
2017-08-29T16:17:23.972Z,10.90
2017-08-29T16:19:51.842Z,9.73
2017-08-29T16:22:19.575Z,9.30
2017-08-29T16:24:47.469Z,9.63
2017-08-29T16:27:15.284Z,9.53
2017-08-29T16:29:43.077Z,10.40
2017-08-29T16:32:10.903Z,9.83
2017-08-29T16:34:39.228Z,10.63
2017-08-29T16:37:07.083Z,10.20
2017-08-29T16:39:34.907Z,10.63
2017-08-29T16:42:02.761Z,9.73
2017-08-29T16:44:30.580Z,10.50
2017-08-29T16:46:58.430Z,10.67
2017-08-29T16:49:26.227Z,10.67
2017-08-29T16:51:54.098Z,10.43
2017-08-29T16:54:21.912Z,10.90
2017-08-29T16:56:49.787Z,10.67
2017-08-29T16:59:17.610Z,10.87
2017-08-29T17:01:45.483Z,10.80
2017-08-29T17:04:13.290Z,10.77
2017-08-29T17:06:41.184Z,10.73
2017-08-29T17:09:09.052Z,12.07
2017-08-29T17:11:36.941Z,11.87
2017-08-29T17:14:04.808Z,10.93
2017-08-29T17:16:33.157Z,11.40
2017-08-29T17:19:26.038Z,11.50
2017-08-29T17:21:53.826Z,11.77
2017-08-29T17:24:21.615Z,12.00
2017-08-29T17:26:49.345Z,11.77
2017-08-29T17:29:17.200Z,12.27
2017-08-29T17:31:44.922Z,12.37
2017-08-29T17:34:13.088Z,11.80
2017-08-29T17:36:41.165Z,12.73
2017-08-29T17:39:09.031Z,12.87
2017-08-29T17:41:36.850Z,12.70
2017-08-29T17:44:04.742Z,12.60
2017-08-29T17:46:32.563Z,13.40
2017-08-29T17:49:00.384Z,13.93
2017-08-29T17:51:28.244Z,14.77
2017-08-29T17:53:55.993Z,15.00
2017-08-29T17:56:23.784Z,15.23
2017-08-29T17:58:51.598Z,15.17
2017-08-29T18:01:19.388Z,15.27
2017-08-29T18:03:47.157Z,15.10
2017-08-29T18:06:15.029Z,16.07
2017-08-29T18:08:42.760Z,15.37
2017-08-29T18:11:10.522Z,15.43
2017-08-29T18:13:38.232Z,16.37
2017-08-29T18:16:06.011Z,15.57
2017-08-29T18:18:33.738Z,16.10
2017-08-29T18:21:01.536Z,16.23
2017-08-29T18:23:29.259Z,16.40
2017-08-29T18:25:56.967Z,15.87
2017-08-29T18:28:25.096Z,15.83
2017-08-29T18:30:53.055Z,16.00
2017-08-29T18:33:20.859Z,17.37
2017-08-29T18:38:22.090Z,15.83
2017-08-29T18:40:49.809Z,16.33
2017-08-29T18:43:17.581Z,16.90
2017-08-29T18:45:45.374Z,16.87
2017-08-29T18:48:13.155Z,15.67
2017-08-29T18:50:41.026Z,15.97
2017-08-29T18:53:08.836Z,16.80
2017-08-29T18:55:36.570Z,17.70
2017-08-29T18:58:04.672Z,17.60
2017-08-29T19:00:32.524Z,15.87
2017-08-29T19:03:00.403Z,16.00
2017-08-29T19:05:28.325Z,17.27
2017-08-29T19:07:56.347Z,15.97
2017-08-29T19:10:24.300Z,16.53
2017-08-29T19:12:52.199Z,17.50
2017-08-29T19:15:20.126Z,18.23
2017-08-29T19:17:47.974Z,19.27
2017-08-29T19:20:15.906Z,16.97
2017-08-29T19:22:43.795Z,18.30
2017-08-29T19:25:11.612Z,17.37
2017-08-29T19:27:39.570Z,17.40
2017-08-29T19:30:07.459Z,17.73
2017-08-29T19:32:35.322Z,16.87
2017-08-29T19:35:03.166Z,16.80
2017-08-29T19:37:31.005Z,17.83
2017-08-29T19:39:58.798Z,17.67
2017-08-29T19:42:26.675Z,18.40
2017-08-29T19:44:54.494Z,17.77
2017-08-29T19:47:22.350Z,16.80
2017-08-29T19:49:50.178Z,16.00
2017-08-29T19:52:18.009Z,17.03
2017-08-29T19:54:45.877Z,18.20
2017-08-29T19:57:13.623Z,21.23
2017-08-29T19:59:41.408Z,17.60
2017-08-29T20:02:09.231Z,20.17
2017-08-29T20:04:37.192Z,18.07
2017-08-29T20:07:04.920Z,18.97
2017-08-29T20:09:32.715Z,16.70
2017-08-29T20:12:00.454Z,19.50
2017-08-29T20:14:28.238Z,20.63
2017-08-29T20:16:56.037Z,17.50
2017-08-29T20:19:23.850Z,17.33
2017-08-29T20:21:51.636Z,15.57
2017-08-29T20:24:19.412Z,15.07
2017-08-29T20:26:47.255Z,15.70
2017-08-29T20:29:15.082Z,15.60
2017-08-29T20:31:42.875Z,16.00
2017-08-29T20:34:10.686Z,15.53
2017-08-29T20:36:38.560Z,15.57
2017-08-29T20:39:06.390Z,17.00
2017-08-29T20:41:34.222Z,18.13
2017-08-29T20:44:01.983Z,17.63
2017-08-29T20:46:29.783Z,16.40
2017-08-29T20:48:57.493Z,15.90
2017-08-29T20:51:25.300Z,17.03
2017-08-29T20:53:53.056Z,18.40
2017-08-29T20:56:20.869Z,19.37
2017-08-29T20:58:48.727Z,19.10
2017-08-29T21:01:16.460Z,18.77
2017-08-29T21:03:44.349Z,19.37
2017-08-29T21:06:12.165Z,19.40
2017-08-29T21:08:40.118Z,18.30
2017-08-29T21:11:07.916Z,20.13
2017-08-29T21:13:35.836Z,20.60
2017-08-29T21:16:03.608Z,16.33
2017-08-29T21:18:31.393Z,16.93
2017-08-29T21:20:59.194Z,17.50
2017-08-29T21:23:26.932Z,16.10
2017-08-29T21:25:54.776Z,15.57
2017-08-29T21:28:22.568Z,16.70
2017-08-29T21:30:50.424Z,16.67
2017-08-29T21:33:18.243Z,16.57
2017-08-29T21:35:46.028Z,15.67
2017-08-29T21:38:13.848Z,16.03
2017-08-29T21:40:41.695Z,16.20
2017-08-29T21:43:09.547Z,16.50
2017-08-29T21:45:38.228Z,16.33
2017-08-29T21:48:06.037Z,16.27
2017-08-29T21:50:33.843Z,14.40
2017-08-29T21:53:01.651Z,14.57
2017-08-29T21:55:29.482Z,15.40
2017-08-29T21:57:57.337Z,15.13
2017-08-29T22:00:30.895Z,14.97
2017-08-29T22:02:58.742Z,17.03
2017-08-29T22:05:26.558Z,15.80
2017-08-29T22:07:54.396Z,16.40
2017-08-29T22:10:22.221Z,15.17
2017-08-29T22:12:50.080Z,16.17
2017-08-29T22:15:17.881Z,16.90
2017-08-29T22:17:45.752Z,19.00
2017-08-29T22:20:13.579Z,16.60
2017-08-29T22:22:41.411Z,18.13
2017-08-29T22:25:09.201Z,17.43
2017-08-29T22:27:36.984Z,17.30
2017-08-29T22:30:04.869Z,16.83
2017-08-29T22:32:32.592Z,15.10
2017-08-29T22:35:00.436Z,16.43
2017-08-29T22:37:28.238Z,16.07
2017-08-29T22:39:56.090Z,15.60
2017-08-29T22:42:23.905Z,15.80
2017-08-29T22:44:51.726Z,15.00
2017-08-29T22:47:19.529Z,17.07
2017-08-29T22:49:47.368Z,20.10
2017-08-29T22:52:15.161Z,15.67
2017-08-29T22:54:42.911Z,14.30
2017-08-29T22:57:10.712Z,17.10
2017-08-29T22:59:38.548Z,15.50
2017-08-29T23:02:06.376Z,14.87
2017-08-29T23:04:34.200Z,15.27
2017-08-29T23:07:01.934Z,14.23
2017-08-29T23:09:29.708Z,15.10
2017-08-29T23:11:57.540Z,14.80
2017-08-29T23:14:25.340Z,13.87
2017-08-29T23:16:53.181Z,14.17
2017-08-29T23:19:20.991Z,14.87
2017-08-29T23:21:48.871Z,13.83
2017-08-29T23:24:16.643Z,13.70
2017-08-29T23:26:44.543Z,20.33
2017-08-29T23:29:12.321Z,19.30
2017-08-29T23:31:40.164Z,14.47
2017-08-29T23:34:07.959Z,19.40
2017-08-29T23:36:35.817Z,19.90
2017-08-29T23:39:03.744Z,19.20
2017-08-29T23:41:31.557Z,20.63
2017-08-29T23:43:59.399Z,16.07
2017-08-29T23:46:27.219Z,15.63
2017-08-29T23:48:55.063Z,15.43
2017-08-29T23:51:22.855Z,16.33
2017-08-29T23:53:50.686Z,15.27
2017-08-29T23:56:18.476Z,15.67
2017-08-29T23:58:46.305Z,14.67
